Cleethorpes, United Kingdom
Current Conditions -  °F | °C
As of 8:50 AM on Sunday 23 Nov 2014 (Local Time) from EGXS Reporting Station
Broken Clouds Broken Clouds  
Wind Chill: 39°   Ceiling: 5000
Heat Index: 46°   Visibility: 3mi
Dew Point: 45°   Wind: 17mph
Humidity: 93%   Direction: 300°WNW
Pressure: 30"   Gusts: NA
Location:  53.56°N, 0.03°W
Report Text: EGXS 230850Z AUTO 30015KT 5000 // FEW011/// BKN050/// 08/07 Q1016
Loading
Personal Weather Stations






























Interactive Weather Map New forecast layout! Learn more

10-Day Weather Forecast

Advertisements
Track Severe Weather on mobile